• Join FlightAware (Why Join?)
  • Login
  • US Flag 
02:41AM EDT


 

Airport Tracker/Info


-or-


 

Live Flight TrackerFlight Track Log ✈ DAL2352 ✈ 29-Aug-2013 ✈ KALB - KATL

Flight Track Log - Related Links

Times and Time Zones

All times are in EDT time to prevent confusion due to time zone crossing. See the DAL2352 flight status page for this flight to view local times or setup timezone preferences in your user account.

Time Position Orientation Groundspeed Altitude Reporting Facility
EDT Latitude Longitude Course Direction KTS MPH feet Rate Location/Type
06:28AM 42.7672 -73.8061 180° South 163 188 1,200  Level Boston Center
06:29AM 42.8189 -73.8497 328° Northwest 225 259 3,100 2,340 Climbing Boston Center
06:31AM 42.4911 -74.1625 200° South  Level Estimated
06:31AM 42.8906 -73.9419 317° Northwest 296 341 6,800  Level Boston Center
06:32AM 42.4048 -74.2820 198° South  Level Estimated
06:32AM 42.9458 -74.0200 314° West 286 329 10,000  Level Boston Center
06:33AM 42.3185 -74.4012 180° South  Level Estimated
06:33AM 42.9906 -74.1033 306° West 279 321 12,400  Level Boston Center
06:34AM 42.2319 -74.5200 180° South  Level Estimated
06:34AM 42.9269 -74.1783 221° Southwest 219 252 14,400  Level Boston Center
06:35AM 42.8356 -74.1617 172° South 298 343 15,400 1,320 Climbing Boston Center
06:36AM 42.7108 -74.1325 170° South 410 472 17,000 1,740 Climbing Boston Center
06:37AM 42.6028 -74.1100 171° South 434 499 18,900 1,740 Climbing Boston Center
06:38AM 42.4781 -74.0869 172° South 445 512 20,600 1,800 Climbing Boston Center
06:39AM 42.3472 -74.0608 172° South 456 525 22,600 1,680 Climbing Boston Center
06:40AM 42.2183 -74.0408 173° South 468 539 24,000 1,320 Climbing Boston Center
06:41AM 42.0828 -74.0458 182° South 473 544 25,300 1,620 Climbing Boston Center
06:42AM 41.9492 -74.0536 182° South 484 557 27,200 1,680 Climbing Boston Center
06:44AM 41.6061 -74.0975 185° South 483 556 31,300 1,440 Climbing New York Center
06:45AM 41.5097 -74.1953 217° Southwest 447 514 32,300 900 Climbing New York Center
06:46AM 41.4086 -74.3061 219° Southwest 447 514 33,100 720 Climbing New York Center
06:47AM 41.3117 -74.4142 220° Southwest 458 527 33,800 420 Climbing New York Center
06:48AM 41.2106 -74.5164 217° Southwest 465 535 34,000 60 Climbing New York Center
06:49AM 41.1092 -74.6264 219° Southwest 470 541 34,000  Level New York Center
06:50AM 41.0097 -74.7361 220° Southwest 470 541 34,000  Level New York Center
06:51AM 40.9081 -74.8400 218° Southwest 465 535 34,000  Level New York Center
06:52AM 40.8064 -74.9492 219° Southwest 465 535 34,000  Level New York Center
06:53AM 40.7047 -75.0578 219° Southwest 465 535 34,000  Level New York Center
06:54AM 40.6028 -75.1636 218° Southwest 465 535 34,000  Level New York Center
06:55AM 40.5006 -75.2744 220° Southwest 465 535 34,000  Level New York Center
06:56AM 40.4050 -75.3744 219° Southwest 477 549 34,000  Level New York Center
06:57AM 40.2986 -75.4844 218° Southwest 487 560 34,000  Level New York Center
06:58AM 40.1961 -75.5997 221° Southwest 487 560 34,000  Level New York Center
06:59AM 40.1133 -75.7353 231° Southwest 487 560 34,000  Level New York Center
07:00AM 40.0283 -75.8700 231° Southwest 482 555 34,000  Level New York Center
07:01AM 39.9453 -76.0022 231° Southwest 482 555 34,000  Level New York Center
07:03AM 39.8100 -76.2156 231° Southwest 478 550 34,000  Level Washington Center
07:04AM 39.7258 -76.3497 231° Southwest 478 550 34,000  Level Washington Center
07:05AM 39.6458 -76.4808 232° Southwest 472 543 34,000  Level Washington Center
07:06AM 39.5489 -76.6222 228° Southwest 472 543 34,000  Level Washington Center
07:07AM 39.4664 -76.7528 231° Southwest 478 550 34,000  Level Washington Center
07:08AM 39.3839 -76.8831 231° Southwest 478 550 34,000  Level Washington Center
07:09AM 39.2989 -77.0131 230° Southwest 478 550 34,000  Level Washington Center
07:10AM 39.2161 -77.1428 231° Southwest 478 550 34,000  Level Washington Center
07:11AM 39.1331 -77.2694 230° Southwest 473 544 34,000  Level Washington Center
07:12AM 39.0478 -77.3983 230° Southwest 473 544 34,000  Level Washington Center
07:13AM 38.9644 -77.5272 230° Southwest 473 544 34,000  Level Washington Center
07:14AM 38.8789 -77.6583 230° Southwest 483 556 34,000  Level Washington Center
07:15AM 38.7975 -77.7786 229° Southwest 483 556 34,000  Level Washington Center
07:16AM 38.7161 -77.9039 230° Southwest 483 556 34,000  Level Washington Center
07:17AM 38.6322 -78.0314 230° Southwest 478 550 34,000  Level Washington Center
07:18AM 38.5483 -78.1561 229° Southwest 473 544 34,000  Level Washington Center
07:19AM 38.4644 -78.2778 229° Southwest 473 544 34,000  Level Washington Center
07:20AM 38.3800 -78.4044 230° Southwest 473 544 34,000  Level Washington Center
07:21AM 38.2936 -78.5308 229° Southwest 468 539 34,000  Level Washington Center
07:22AM 38.2069 -78.6675 231° Southwest 463 533 34,000  Level Washington Center
07:23AM 38.1203 -78.7933 229° Southwest 463 533 34,000  Level Washington Center
07:24AM 38.0333 -78.9161 228° Southwest 468 539 34,000  Level Washington Center
07:25AM 37.9594 -79.0261 230° Southwest 468 539 34,000  Level Washington Center
07:26AM 37.8744 -79.1486 229° Southwest 468 539 34,000  Level Washington Center
07:27AM 37.7853 -79.2706 227° Southwest 468 539 34,000  Level Washington Center
07:28AM 37.6853 -79.4022 226° Southwest 474 545 34,000  Level Washington Center
07:29AM 37.6086 -79.5111 228° Southwest 480 552 34,000  Level Washington Center
07:30AM 37.5125 -79.6422 227° Southwest 475 547 34,000  Level Washington Center
07:31AM 37.4292 -79.7581 228° Southwest 483 556 34,000  Level Washington Center
07:32AM 37.3436 -79.8761 228° Southwest 488 562 34,000  Level Washington Center
07:33AM 37.2472 -80.0064 227° Southwest 477 549 34,000  Level Washington Center
07:34AM 37.1414 -80.1489 227° Southwest 466 536 34,000  Level Atlanta Center
07:35AM 37.0536 -80.2703 228° Southwest 459 528 34,000  Level Atlanta Center
07:36AM 36.9775 -80.3753 228° Southwest 459 528 34,000  Level Atlanta Center
07:37AM 36.8911 -80.4908 227° Southwest 459 528 34,000  Level Atlanta Center
07:38AM 36.8008 -80.6089 226° Southwest 459 528 34,000  Level Atlanta Center
07:39AM 36.7061 -80.7322 226° Southwest 454 522 34,000  Level Atlanta Center
07:40AM 36.6194 -80.8497 227° Southwest 460 529 34,000  Level Atlanta Center
07:41AM 36.5308 -80.9642 226° Southwest 460 529 34,000  Level Atlanta Center
07:42AM 36.4419 -81.0811 227° Southwest 460 529 34,000  Level Atlanta Center
07:43AM 36.3569 -81.1953 227° Southwest 460 529 34,000  Level Atlanta Center
07:44AM 36.2697 -81.3089 226° Southwest 460 529 34,000  Level Atlanta Center
07:45AM 36.1847 -81.4200 227° Southwest 449 517 34,000  Level Atlanta Center
07:46AM 36.0994 -81.5331 227° Southwest 454 522 34,000  Level Atlanta Center
07:47AM 36.0078 -81.6489 226° Southwest 461 531 34,000  Level Atlanta Center
07:48AM 35.9306 -81.7511 227° Southwest 461 531 34,000  Level Atlanta Center
07:49AM 35.8428 -81.8614 226° Southwest 456 525 34,000  Level Atlanta Center
07:50AM 35.7489 -81.9764 225° Southwest 468 539 34,000  Level Atlanta Center
07:51AM 35.6631 -82.0911 227° Southwest 468 539 34,000  Level Atlanta Center
07:52AM 35.5731 -82.2056 226° Southwest 463 533 34,000 -60 Level Atlanta Center
07:53AM 35.4850 -82.3172 226° Southwest 458 527 33,900 -960 Descending Atlanta Center
07:54AM 35.3925 -82.4261 224° Southwest 458 527 32,100 -1,680 Descending Atlanta Center
07:55AM 35.2958 -82.5347 223° Southwest 474 545 30,600 -1,380 Descending Atlanta Center
07:56AM 35.1908 -82.6486 222° Southwest 469 540 29,400 -1,020 Descending Atlanta Center
07:57AM 35.0897 -82.7569 221° Southwest 476 548 28,600 -780 Descending Atlanta Center
07:58AM 34.9928 -82.8650 222° Southwest 476 548 27,900 -840 Descending Atlanta Center
07:59AM 34.8917 -82.9728 221° Southwest 481 554 27,000 -840 Descending Atlanta Center
08:00AM 34.7922 -83.0775 221° Southwest 486 559 26,300 -720 Descending Atlanta Center
08:01AM 34.6908 -83.1850 221° Southwest 481 554 25,600 -960 Descending Atlanta Center
08:02AM 34.5956 -83.2919 223° Southwest 476 548 24,400 -1,200 Descending Atlanta Center
08:03AM 34.5000 -83.3961 222° Southwest 468 539 23,300 -1,500 Descending Atlanta Center
08:04AM 34.4108 -83.4950 222° Southwest 447 514 21,400 -1,800 Descending Atlanta Center
08:05AM 34.3297 -83.5811 221° Southwest 410 472 19,700 -1,680 Descending Atlanta Center
08:06AM 34.2653 -83.6542 223° Southwest 382 440 18,100 -1,800 Descending Atlanta Center
08:07AM 34.1906 -83.7300 220° Southwest 360 414 16,100 -2,580 Descending Atlanta Center
08:08AM 34.1197 -83.8081 222° Southwest 351 404 13,000 -2,280 Descending Atlanta Center
08:09AM 34.0500 -83.8833 222° Southwest 327 376 11,700 -1,260 Descending Atlanta TRACON
08:10AM 33.9833 -83.9500 220° Southwest 298 343 10,600 -1,200 Descending Atlanta TRACON
08:11AM 33.9000 -83.9667 189° South 309 356 9,300 -900 Descending Atlanta TRACON
08:12AM 33.8333 -83.9667 180° South 264 304 9,000 -540 Descending Atlanta TRACON
08:13AM 33.7667 -83.9667 180° South 250 288 8,300 -900 Descending Atlanta TRACON
08:14AM 33.7000 -83.9833 192° South 245 282 7,300 -720 Descending Atlanta TRACON
08:15AM 33.6333 -84.0167 203° Southwest 239 275 7,000 -660 Descending Atlanta TRACON
08:16AM 33.6333 -84.0667 270° West 192 221 6,000 -840 Descending Atlanta TRACON
08:17AM 33.6333 -84.1333 270° West 191 220 5,400 -780 Descending Atlanta TRACON
08:18AM 33.6333 -84.2000 270° West 194 223 4,500 -960 Descending Atlanta TRACON
08:19AM 33.6333 -84.2667 270° West 183 211 3,400 -1,020 Descending Atlanta TRACON
08:20AM 33.6333 -84.3333 270° West 169 194 2,400 -900 Descending Atlanta TRACON
08:21AM 33.6333 -84.3833 270° West 147 169 1,700 -720 Descending Atlanta TRACON